Time;durP1;ratioP1;P1;durP2;ratioP2;P2;SDS_P1;SDS_P2;PMS_P1;PMS_P2;Temp;Humidity;BMP_temperature;BMP_pressure;BME280_temperature;BME280_humidity;BME280_pressure;Samples;Min_cycle;Max_cycle;Signal;HPM_P1;HPM_P2
2021/11/06 00:01:26;;;;;;;12.43;9.85;;;10.00;99.90;;;;;;5072949;28;20212;-73
2021/11/06 00:03:52;;;;;;;12.60;10.35;;;10.00;99.90;;;;;;5072903;28;20177;-73
2021/11/06 00:06:18;;;;;;;14.00;12.02;;;10.00;99.90;;;;;;5073176;28;20188;-71
2021/11/06 00:08:44;;;;;;;21.20;16.90;;;10.00;99.90;;;;;;5073169;28;20586;-70
2021/11/06 00:11:10;;;;;;;20.13;16.07;;;10.00;99.90;;;;;;5074123;28;20417;-73
2021/11/06 00:13:38;;;;;;;17.45;12.93;;;10.10;99.90;;;;;;5072992;28;20221;-73
2021/11/06 00:16:05;;;;;;;15.13;11.35;;;10.10;99.90;;;;;;5072747;28;20275;-73
2021/11/06 00:18:37;;;;;;;14.50;11.70;;;10.10;99.90;;;;;;5073079;28;20189;-73
2021/11/06 00:21:03;;;;;;;14.15;11.23;;;10.10;99.90;;;;;;5072679;28;20200;-71
2021/11/06 00:23:32;;;;;;;12.18;9.90;;;10.10;99.90;;;;;;5072987;28;20650;-73
2021/11/06 00:25:58;;;;;;;11.60;9.70;;;10.10;99.90;;;;;;5072694;28;20544;-68
2021/11/06 00:28:30;;;;;;;10.77;9.55;;;10.10;99.90;;;;;;5074327;28;20177;-68
2021/11/06 00:30:56;;;;;;;11.30;8.80;;;10.10;99.90;;;;;;5072692;28;20570;-68
2021/11/06 00:33:30;;;;;;;10.23;9.00;;;10.10;99.90;;;;;;5072567;28;20209;-71
2021/11/06 00:35:59;;;;;;;13.30;10.48;;;10.10;99.90;;;;;;5073836;28;20192;-71
2021/11/06 00:38:28;;;;;;;12.95;9.32;;;10.10;99.90;;;;;;5072550;28;20232;-69
2021/11/06 00:40:56;;;;;;;13.50;9.32;;;10.10;99.90;;;;;;5071932;28;20221;-71
2021/11/06 00:43:26;;;;;;;10.95;9.02;;;10.10;99.90;;;;;;5072849;28;20239;-71
2021/11/06 00:45:53;;;;;;;12.93;9.75;;;10.10;99.90;;;;;;5072502;28;20204;-69
2021/11/06 00:48:19;;;;;;;13.15;9.00;;;10.20;99.90;;;;;;5074405;28;20185;-68
2021/11/06 00:50:46;;;;;;;9.82;8.82;;;10.20;99.90;;;;;;5072632;28;20199;-69
2021/11/06 00:53:12;;;;;;;12.57;9.55;;;10.20;99.90;;;;;;5072200;28;20237;-72
2021/11/06 00:55:45;;;;;;;12.52;9.45;;;10.20;99.90;;;;;;5072883;28;20556;-71
2021/11/06 00:58:12;;;;;;;12.98;9.75;;;10.10;99.90;;;;;;5072865;28;20589;-69
2021/11/06 01:00:47;;;;;;;10.30;8.65;;;10.20;99.90;;;;;;5072456;28;20204;-71
2021/11/06 01:03:15;;;;;;;12.05;9.88;;;10.20;99.90;;;;;;5072678;28;20196;-72
2021/11/06 01:05:41;;;;;;;11.03;9.13;;;10.20;99.90;;;;;;5072370;28;20197;-69
2021/11/06 01:08:07;;;;;;;12.18;9.55;;;10.20;99.90;;;;;;5072662;28;20259;-69
2021/11/06 01:10:34;;;;;;;12.52;10.00;;;10.20;99.90;;;;;;5072043;28;20613;-71
2021/11/06 01:13:01;;;;;;;12.05;10.38;;;10.10;99.90;;;;;;5072064;28;20213;-72
2021/11/06 01:15:27;;;;;;;12.27;9.35;;;10.20;99.90;;;;;;5072075;28;20197;-69
2021/11/06 01:17:53;;;;;;;12.80;9.30;;;10.10;99.90;;;;;;5072065;28;20193;-70
2021/11/06 01:20:19;;;;;;;12.98;9.40;;;10.10;99.90;;;;;;5072013;28;20284;-72
2021/11/06 01:22:46;;;;;;;13.85;10.32;;;10.10;99.90;;;;;;5071913;28;20189;-72
2021/11/06 01:25:13;;;;;;;12.10;8.50;;;10.10;99.90;;;;;;5072026;28;20193;-69
2021/11/06 01:27:39;;;;;;;10.70;8.68;;;10.00;99.90;;;;;;5072114;28;20185;-69
2021/11/06 01:30:07;;;;;;;9.73;8.68;;;10.00;99.90;;;;;;5071968;28;20647;-69
2021/11/06 01:32:35;;;;;;;11.45;9.30;;;10.00;99.90;;;;;;5071943;28;20244;-69
2021/11/06 01:35:05;;;;;;;12.98;9.07;;;10.00;99.90;;;;;;5072026;28;20284;-72
2021/11/06 01:37:32;;;;;;;12.57;8.85;;;9.90;99.90;;;;;;5071976;28;20184;-72
2021/11/06 01:39:58;;;;;;;10.55;9.38;;;9.90;99.90;;;;;;5071901;28;20197;-72
2021/11/06 01:42:28;;;;;;;12.35;9.32;;;9.90;99.90;;;;;;5072096;28;20239;-71
2021/11/06 01:44:54;;;;;;;11.30;10.00;;;9.90;99.90;;;;;;5071986;28;20189;-69
2021/11/06 01:47:20;;;;;;;10.48;8.85;;;9.90;99.90;;;;;;5072057;28;20185;-68
2021/11/06 01:49:46;;;;;;;14.10;10.05;;;9.90;99.90;;;;;;5071912;28;20250;-69
2021/11/06 01:52:13;;;;;;;11.70;9.00;;;9.90;99.90;;;;;;5073231;28;20177;-68
2021/11/06 01:54:48;;;;;;;13.15;10.00;;;9.80;99.90;;;;;;5075253;28;20538;-72
2021/11/06 01:57:17;;;;;;;11.30;9.18;;;9.80;99.90;;;;;;5075245;28;20646;-69
2021/11/06 01:59:45;;;;;;;12.57;9.15;;;9.80;99.90;;;;;;5075255;28;20254;-72
2021/11/06 02:02:16;;;;;;;12.10;9.30;;;9.80;99.90;;;;;;5075304;28;20200;-71
2021/11/06 02:04:45;;;;;;;11.95;9.23;;;9.70;99.90;;;;;;5075308;28;20197;-72
2021/11/06 02:07:11;;;;;;;12.40;9.80;;;9.70;99.90;;;;;;5075153;28;20184;-72
2021/11/06 02:09:40;;;;;;;13.57;10.73;;;9.70;99.90;;;;;;5075126;28;20232;-71
2021/11/06 02:12:09;;;;;;;11.90;9.95;;;9.70;99.90;;;;;;5075296;28;20177;-69
2021/11/06 02:14:35;;;;;;;12.10;9.57;;;9.70;99.90;;;;;;5074977;28;20653;-69
2021/11/06 02:17:03;;;;;;;12.25;9.65;;;9.70;99.90;;;;;;5074994;28;20284;-69
2021/11/06 02:19:32;;;;;;;13.85;9.57;;;9.70;99.90;;;;;;5074947;28;20201;-72
2021/11/06 02:22:00;;;;;;;13.35;10.77;;;9.70;99.90;;;;;;5074852;28;20276;-68
2021/11/06 02:24:27;;;;;;;13.13;9.77;;;9.70;99.90;;;;;;5074857;28;20283;-72
2021/11/06 02:26:54;;;;;;;11.93;10.40;;;9.70;99.90;;;;;;5074997;28;20185;-72
2021/11/06 02:29:21;;;;;;;12.60;9.27;;;9.60;99.90;;;;;;5074875;28;20197;-69
2021/11/06 02:31:48;;;;;;;11.70;9.27;;;9.60;99.90;;;;;;5074878;28;20181;-72
2021/11/06 02:34:14;;;;;;;10.55;9.45;;;9.60;99.90;;;;;;5074661;28;20216;-72
2021/11/06 02:36:40;;;;;;;12.70;9.88;;;9.60;99.90;;;;;;5074847;28;20629;-68
2021/11/06 02:39:11;;;;;;;12.47;9.23;;;9.60;99.90;;;;;;5074596;28;20185;-72
2021/11/06 02:41:39;;;;;;;11.45;9.85;;;9.60;99.90;;;;;;5074783;28;20441;-68
2021/11/06 02:44:10;;;;;;;12.10;9.13;;;9.60;99.90;;;;;;5074542;28;20185;-69
2021/11/06 02:46:38;;;;;;;13.55;10.57;;;9.60;99.90;;;;;;5074514;28;20654;-69
2021/11/06 02:49:05;;;;;;;11.32;10.23;;;9.60;99.90;;;;;;5074477;28;20177;-69
2021/11/06 02:51:31;;;;;;;14.77;11.35;;;9.60;99.90;;;;;;5074659;28;20177;-69
2021/11/06 02:53:57;;;;;;;12.68;10.27;;;9.60;99.90;;;;;;5074175;28;20228;-72
2021/11/06 02:56:28;;;;;;;13.05;10.02;;;9.60;99.90;;;;;;5074768;28;20173;-70
2021/11/06 02:58:55;;;;;;;12.70;10.05;;;9.60;99.90;;;;;;5074479;28;20173;-70
2021/11/06 03:01:24;;;;;;;13.73;10.18;;;9.60;99.90;;;;;;5074181;28;20634;-69
2021/11/06 03:03:54;;;;;;;10.70;9.55;;;9.60;99.90;;;;;;5075169;28;20281;-68
2021/11/06 03:06:21;;;;;;;11.90;9.88;;;9.60;99.90;;;;;;5074365;28;20169;-72
2021/11/06 03:08:47;;;;;;;12.07;8.93;;;9.60;99.90;;;;;;5074490;28;20262;-69
2021/11/06 03:11:13;;;;;;;12.33;9.00;;;9.60;99.90;;;;;;5073984;28;20643;-69
2021/11/06 03:14:05;;;;;;;13.15;9.85;;;9.60;99.90;;;;;;5073922;28;20271;-71
2021/11/06 03:16:40;;;;;;;12.20;9.68;;;9.60;99.90;;;;;;5074005;28;20177;-72
2021/11/06 03:19:06;;;;;;;10.70;9.00;;;9.60;99.90;;;;;;5073849;28;20173;-72
2021/11/06 03:21:39;;;;;;;11.60;8.90;;;9.60;99.90;;;;;;5073610;28;20268;-71
2021/11/06 03:24:05;;;;;;;12.35;9.65;;;9.60;99.90;;;;;;5073974;28;20173;-69
2021/11/06 03:26:32;;;;;;;12.07;9.30;;;9.60;99.90;;;;;;5074038;28;20215;-72
2021/11/06 03:28:59;;;;;;;11.13;8.65;;;9.60;99.90;;;;;;5073649;28;20173;-69
2021/11/06 03:31:25;;;;;;;12.65;9.65;;;9.60;99.90;;;;;;5073575;28;20173;-68
2021/11/06 03:33:51;;;;;;;12.98;9.90;;;9.60;99.90;;;;;;5073569;28;20671;-72
2021/11/06 03:36:19;;;;;;;12.87;9.90;;;9.60;99.90;;;;;;5073648;28;20292;-69
2021/11/06 03:38:46;;;;;;;12.00;9.90;;;9.60;99.90;;;;;;5073512;28;20422;-68
2021/11/06 03:41:55;;;;;;;13.43;10.07;;;9.60;99.90;;;;;;5073372;28;20201;-69
2021/11/06 03:44:29;;;;;;;13.65;10.23;;;9.60;99.90;;;;;;5073335;28;20201;-72
2021/11/06 03:46:55;;;;;;;16.00;10.77;;;9.60;99.90;;;;;;5073625;28;20216;-72
2021/11/06 03:49:21;;;;;;;11.95;10.32;;;9.60;99.90;;;;;;5073519;28;20196;-72
2021/11/06 03:51:49;;;;;;;14.83;10.07;;;9.60;99.90;;;;;;5073437;28;20181;-69
2021/11/06 03:54:19;;;;;;;11.02;9.50;;;9.60;99.90;;;;;;5073058;28;20994;-71
2021/11/06 03:56:47;;;;;;;12.32;9.75;;;9.60;99.90;;;;;;5073169;28;20177;-71
2021/11/06 03:59:13;;;;;;;13.73;9.82;;;9.60;99.90;;;;;;5073024;28;20197;-69
2021/11/06 04:01:40;;;;;;;13.13;10.30;;;9.60;99.90;;;;;;5073127;28;20207;-68
2021/11/06 04:04:08;;;;;;;12.10;9.40;;;9.60;99.90;;;;;;5072952;28;20280;-69
2021/11/06 04:06:34;;;;;;;13.15;10.18;;;9.60;99.90;;;;;;5073046;28;20197;-68
2021/11/06 04:09:00;;;;;;;12.45;10.00;;;9.60;99.90;;;;;;5073095;28;20259;-69
2021/11/06 04:11:27;;;;;;;12.07;10.38;;;9.60;99.90;;;;;;5072898;28;20177;-72
2021/11/06 04:13:53;;;;;;;14.63;9.55;;;9.60;99.90;;;;;;5072449;28;20213;-72
2021/11/06 04:16:21;;;;;;;13.75;10.05;;;9.60;99.90;;;;;;5072490;28;20713;-69
2021/11/06 04:18:47;;;;;;;12.50;9.55;;;9.60;99.90;;;;;;5072794;28;20204;-71
2021/11/06 04:21:13;;;;;;;10.68;8.98;;;9.60;99.90;;;;;;5072353;28;20292;-69
2021/11/06 04:23:39;;;;;;;11.80;10.07;;;9.60;99.90;;;;;;5073236;28;20231;-69
2021/11/06 04:26:10;;;;;;;11.40;9.73;;;9.60;99.90;;;;;;5072750;28;20540;-72
2021/11/06 04:28:36;;;;;;;11.90;9.30;;;9.60;99.90;;;;;;5074468;28;20579;-72
2021/11/06 04:31:02;;;;;;;11.40;9.93;;;9.60;99.90;;;;;;5072589;28;20201;-68
2021/11/06 04:33:32;;;;;;;11.77;9.23;;;9.60;99.90;;;;;;5072895;28;20563;-72
2021/11/06 04:36:08;;;;;;;11.03;9.33;;;9.60;99.90;;;;;;5072625;28;20200;-72
2021/11/06 04:38:33;;;;;;;10.15;8.73;;;9.60;99.90;;;;;;5072888;28;20814;-72
2021/11/06 04:41:00;;;;;;;12.07;9.50;;;9.50;99.90;;;;;;5072550;28;20240;-69
2021/11/06 04:43:26;;;;;;;13.65;9.23;;;9.50;99.90;;;;;;5072781;28;20239;-68
2021/11/06 04:45:54;;;;;;;16.10;9.73;;;9.50;99.90;;;;;;5072799;28;20584;-72
2021/11/06 04:48:23;;;;;;;11.73;9.02;;;9.50;99.90;;;;;;5072751;28;20738;-72
2021/11/06 04:50:49;;;;;;;11.43;9.75;;;9.40;99.90;;;;;;5072969;28;20291;-71
2021/11/06 04:53:18;;;;;;;9.77;8.63;;;9.40;99.90;;;;;;5072026;28;20328;-72
2021/11/06 04:55:44;;;;;;;11.57;8.10;;;9.40;99.90;;;;;;5072463;28;20229;-72
2021/11/06 04:58:11;;;;;;;11.50;9.50;;;9.30;99.90;;;;;;5072689;28;20653;-69
2021/11/06 05:00:38;;;;;;;13.30;10.07;;;9.30;99.90;;;;;;5072399;28;20201;-68
2021/11/06 05:03:03;;;;;;;13.43;9.60;;;9.30;99.90;;;;;;5072313;28;20612;-69
2021/11/06 05:05:29;;;;;;;11.27;8.77;;;9.20;99.90;;;;;;5072305;28;20236;-69
2021/11/06 05:07:56;;;;;;;12.80;9.93;;;9.20;99.90;;;;;;5072763;28;20425;-69
2021/11/06 05:10:22;;;;;;;10.82;8.68;;;9.20;99.90;;;;;;5072144;28;20197;-71
2021/11/06 05:12:51;;;;;;;12.80;9.68;;;9.10;99.90;;;;;;5072105;28;20201;-69
2021/11/06 05:15:17;;;;;;;10.90;8.80;;;9.10;99.90;;;;;;5071915;28;20201;-69
2021/11/06 05:17:44;;;;;;;10.35;8.85;;;9.10;99.90;;;;;;5072356;28;20181;-71
2021/11/06 05:20:11;;;;;;;13.85;9.80;;;9.10;99.90;;;;;;5072240;28;20204;-72
2021/11/06 05:22:37;;;;;;;11.00;9.50;;;9.10;99.90;;;;;;5072133;28;20181;-68
2021/11/06 05:25:05;;;;;;;12.95;10.20;;;9.00;99.90;;;;;;5073203;28;20815;-69
2021/11/06 05:27:36;;;;;;;13.77;10.20;;;9.00;99.90;;;;;;5075403;28;20185;-71
2021/11/06 05:30:07;;;;;;;12.05;9.88;;;9.00;99.90;;;;;;5076084;28;20205;-70
2021/11/06 05:32:34;;;;;;;12.48;9.43;;;8.90;99.90;;;;;;5076091;28;20649;-70
2021/11/06 05:35:00;;;;;;;10.35;9.32;;;8.90;99.90;;;;;;5076014;28;20211;-69
2021/11/06 05:37:27;;;;;;;11.33;9.37;;;8.90;99.90;;;;;;5075900;28;20181;-72
2021/11/06 05:39:54;;;;;;;14.07;10.73;;;8.80;99.90;;;;;;5075502;28;20208;-69
2021/11/06 05:42:21;;;;;;;15.00;11.18;;;8.80;99.90;;;;;;5075757;28;20226;-72
2021/11/06 05:44:47;;;;;;;14.25;11.02;;;8.80;99.90;;;;;;5075635;28;20197;-69
2021/11/06 05:47:16;;;;;;;12.85;10.70;;;8.80;99.90;;;;;;5075579;28;20319;-72
2021/11/06 05:49:42;;;;;;;11.32;9.48;;;8.80;99.90;;;;;;5075866;28;20201;-69
2021/11/06 05:52:10;;;;;;;14.10;11.07;;;8.70;99.90;;;;;;5075657;28;20271;-72
2021/11/06 05:54:40;;;;;;;11.32;9.70;;;8.80;99.90;;;;;;5075293;28;20290;-71
2021/11/06 05:57:06;;;;;;;14.13;9.80;;;8.80;99.90;;;;;;5075513;28;20567;-69
2021/11/06 05:59:33;;;;;;;12.40;9.30;;;8.80;99.90;;;;;;5075453;28;20276;-72
2021/11/06 06:01:59;;;;;;;13.02;9.82;;;8.80;99.90;;;;;;5075330;28;20440;-71
2021/11/06 06:04:25;;;;;;;13.55;10.88;;;8.80;99.90;;;;;;5075334;28;20197;-72
2021/11/06 06:06:51;;;;;;;12.80;10.38;;;8.80;99.90;;;;;;5074949;28;20188;-71
2021/11/06 06:09:18;;;;;;;11.75;10.50;;;8.80;99.90;;;;;;5075082;28;20189;-69
2021/11/06 06:11:44;;;;;;;10.23;9.13;;;8.80;99.90;;;;;;5076153;28;20646;-72
2021/11/06 06:14:10;;;;;;;11.68;9.38;;;8.80;99.90;;;;;;5075414;28;20209;-69
2021/11/06 06:16:37;;;;;;;10.70;9.32;;;8.80;99.90;;;;;;5074016;28;20268;-69
2021/11/06 06:19:07;;;;;;;12.82;10.05;;;8.80;99.90;;;;;;5076129;28;20687;-72
2021/11/06 06:21:33;;;;;;;11.82;9.77;;;8.80;99.90;;;;;;5073297;28;20657;-69
2021/11/06 06:24:00;;;;;;;11.57;9.23;;;8.80;99.90;;;;;;5073014;28;20200;-69
2021/11/06 06:26:26;;;;;;;11.55;9.52;;;8.90;99.90;;;;;;5072723;28;20176;-69
2021/11/06 06:28:58;;;;;;;12.53;9.13;;;8.90;99.90;;;;;;5074255;28;20626;-71
2021/11/06 06:31:27;;;;;;;11.15;9.60;;;9.00;99.90;;;;;;5073274;28;20739;-69
2021/11/06 06:33:54;;;;;;;11.70;9.00;;;9.10;99.90;;;;;;5072459;28;20553;-71
2021/11/06 06:36:20;;;;;;;11.75;9.15;;;9.10;99.90;;;;;;5073261;28;20188;-68
2021/11/06 06:38:53;;;;;;;10.20;9.20;;;9.10;99.90;;;;;;5074032;28;20185;-72
2021/11/06 06:41:19;;;;;;;12.70;9.57;;;9.10;99.90;;;;;;5074764;28;20510;-68
2021/11/06 06:43:45;;;;;;;14.52;10.73;;;9.20;99.90;;;;;;5074587;28;20247;-69
2021/11/06 06:46:11;;;;;;;14.05;10.40;;;9.20;99.90;;;;;;5074583;28;20666;-69
2021/11/06 06:48:38;;;;;;;11.88;9.57;;;9.20;99.90;;;;;;5074669;28;20185;-72
2021/11/06 06:51:04;;;;;;;13.30;10.95;;;9.20;99.90;;;;;;5074323;28;20197;-68
2021/11/06 06:53:36;;;;;;;12.52;10.10;;;9.30;99.90;;;;;;5074475;28;20236;-71
2021/11/06 06:56:03;;;;;;;11.10;8.93;;;9.30;99.90;;;;;;5074302;28;20201;-71
2021/11/06 06:58:31;;;;;;;10.75;9.65;;;9.40;99.90;;;;;;5076176;28;20185;-72
2021/11/06 07:00:57;;;;;;;9.43;8.45;;;9.60;99.90;;;;;;5074195;28;20190;-68
2021/11/06 07:03:23;;;;;;;10.50;8.30;;;9.80;99.90;;;;;;5074194;28;20193;-68
2021/11/06 07:05:55;;;;;;;11.30;9.60;;;9.90;99.90;;;;;;5074971;28;20977;-72
2021/11/06 07:08:23;;;;;;;11.98;8.93;;;10.10;99.90;;;;;;5074422;28;20546;-72
2021/11/06 07:10:49;;;;;;;16.00;8.55;;;10.10;99.90;;;;;;5074454;28;20201;-69
2021/11/06 07:13:20;;;;;;;11.55;9.18;;;10.20;99.90;;;;;;5074068;28;20216;-69
2021/11/06 07:15:46;;;;;;;13.80;10.00;;;10.20;99.90;;;;;;5073922;28;20692;-69
2021/11/06 07:18:13;;;;;;;13.88;9.75;;;10.20;99.90;;;;;;5073972;28;20212;-69
2021/11/06 07:20:39;;;;;;;14.48;10.02;;;10.20;99.90;;;;;;5073925;28;20193;-72
2021/11/06 07:23:06;;;;;;;14.15;10.63;;;10.20;99.90;;;;;;5073919;28;20177;-72
2021/11/06 07:25:33;;;;;;;13.02;9.38;;;10.20;99.90;;;;;;5073544;28;20289;-69
2021/11/06 07:28:00;;;;;;;10.90;9.05;;;10.20;99.90;;;;;;5074050;28;20685;-72
2021/11/06 07:30:26;;;;;;;11.00;9.80;;;10.20;99.90;;;;;;5073688;28;20228;-69
2021/11/06 07:32:52;;;;;;;12.18;9.95;;;10.20;99.90;;;;;;5073676;28;20213;-69
2021/11/06 07:35:20;;;;;;;10.48;9.38;;;10.20;99.90;;;;;;5073470;28;20197;-72
2021/11/06 07:37:46;;;;;;;12.68;10.70;;;10.30;99.90;;;;;;5073790;28;20660;-69
2021/11/06 07:40:15;;;;;;;11.85;10.52;;;10.40;99.90;;;;;;5073724;28;20669;-69
2021/11/06 07:42:44;;;;;;;13.77;9.40;;;10.50;99.90;;;;;;5073809;28;20208;-69
2021/11/06 07:45:14;;;;;;;10.60;9.50;;;10.80;99.90;;;;;;5073387;28;20567;-69
2021/11/06 07:47:40;;;;;;;10.43;8.73;;;11.40;99.90;;;;;;5073256;28;20185;-69
2021/11/06 07:50:08;;;;;;;10.70;9.43;;;11.90;99.90;;;;;;5072637;28;20201;-69
2021/11/06 07:52:35;;;;;;;10.55;9.45;;;12.00;99.90;;;;;;5073372;28;20184;-69
2021/11/06 07:55:03;;;;;;;10.52;9.20;;;12.00;99.90;;;;;;5073206;28;20197;-72
2021/11/06 07:57:32;;;;;;;10.63;8.98;;;11.90;99.90;;;;;;5072667;28;20185;-69
2021/11/06 08:00:04;;;;;;;11.10;9.45;;;11.90;99.90;;;;;;5072267;28;20409;-69
2021/11/06 08:02:32;;;;;;;11.07;9.98;;;11.90;99.90;;;;;;5071328;28;20183;-73
2021/11/06 08:04:59;;;;;;;12.57;10.18;;;12.00;99.90;;;;;;5071087;28;20189;-71
2021/11/06 08:07:26;;;;;;;13.85;10.65;;;12.10;99.90;;;;;;5071350;28;20181;-74
2021/11/06 08:09:52;;;;;;;11.57;10.05;;;12.30;99.90;;;;;;5071094;28;20200;-71
2021/11/06 08:12:19;;;;;;;11.83;9.53;;;12.70;99.90;;;;;;5071494;28;20181;-71
2021/11/06 08:14:45;;;;;;;11.13;9.18;;;13.00;99.90;;;;;;5070957;28;20280;-71
2021/11/06 08:17:11;;;;;;;20.63;15.07;;;13.10;99.90;;;;;;5074068;28;20176;-70
2021/11/06 08:19:38;;;;;;;14.30;12.83;;;13.10;99.90;;;;;;5071891;28;20437;-69
2021/11/06 08:22:16;;;;;;;11.87;10.73;;;13.10;99.90;;;;;;5070506;28;20417;-69
2021/11/06 08:24:42;;;;;;;10.88;9.40;;;13.10;99.90;;;;;;5070692;28;20441;-69
2021/11/06 08:27:08;;;;;;;13.85;10.80;;;13.10;99.90;;;;;;5070589;28;20181;-69
2021/11/06 08:29:35;;;;;;;10.17;9.17;;;13.10;99.90;;;;;;5070621;28;20354;-69
2021/11/06 08:32:01;;;;;;;11.00;9.90;;;13.10;99.90;;;;;;5070669;28;20407;-69
2021/11/06 08:34:28;;;;;;;9.63;8.37;;;13.20;99.90;;;;;;5072114;28;20481;-69
2021/11/06 08:36:55;;;;;;;11.53;8.97;;;13.30;99.90;;;;;;5072434;28;20432;-70
2021/11/06 08:39:22;;;;;;;13.57;11.40;;;13.50;99.90;;;;;;5072323;28;20445;-69
2021/11/06 08:41:49;;;;;;;12.57;9.90;;;13.70;99.90;;;;;;5072181;28;20503;-70
2021/11/06 08:44:26;;;;;;;11.27;9.03;;;13.80;99.90;;;;;;5071854;28;20483;-70
2021/11/06 08:47:04;;;;;;;9.67;8.70;;;13.90;99.90;;;;;;5071541;28;20803;-69
2021/11/06 08:49:30;;;;;;;9.83;8.57;;;13.90;99.90;;;;;;5072370;28;20942;-68
2021/11/06 08:51:57;;;;;;;9.60;8.37;;;13.80;99.90;;;;;;5071914;28;20432;-67
2021/11/06 08:54:30;;;;;;;8.33;7.10;;;13.70;99.90;;;;;;5069805;28;20481;-69
2021/11/06 08:57:04;;;;;;;13.80;7.50;;;13.80;99.90;;;;;;5071640;28;20440;-66
2021/11/06 08:59:33;;;;;;;10.07;8.37;;;14.00;99.90;;;;;;5071945;28;20432;-70
2021/11/06 09:02:10;;;;;;;8.83;7.33;;;14.10;99.90;;;;;;5074546;28;20499;-70
2021/11/06 09:04:54;;;;;;;10.70;8.20;;;14.20;99.90;;;;;;5075640;28;20445;-69
2021/11/06 09:07:59;;;;;;;11.73;8.40;;;14.30;99.90;;;;;;5073470;28;20931;-68
2021/11/06 09:11:04;;;;;;;10.20;7.47;;;14.30;99.90;;;;;;5072164;28;20504;-69
2021/11/06 09:13:37;;;;;;;9.23;7.30;;;14.20;99.90;;;;;;5073937;28;20451;-67
2021/11/06 09:16:13;;;;;;;8.97;8.03;;;14.20;99.90;;;;;;5075974;28;20499;-70
2021/11/06 09:18:45;;;;;;;8.80;7.23;;;14.10;99.90;;;;;;5077714;28;20429;-71
2021/11/06 09:21:14;;;;;;;8.77;7.80;;;14.00;99.90;;;;;;5076051;28;20432;-71
2021/11/06 09:23:40;;;;;;;11.70;8.10;;;13.90;99.90;;;;;;5073750;28;20432;-69
2021/11/06 09:26:11;;;;;;;11.00;8.90;;;13.90;99.90;;;;;;5073172;28;20449;-69
2021/11/06 09:28:40;;;;;;;10.33;8.27;;;13.90;99.90;;;;;;5075830;28;20437;-71
2021/11/06 09:31:13;;;;;;;8.57;7.67;;;13.90;99.90;;;;;;5075393;28;20454;-70
2021/11/06 09:33:47;;;;;;;9.87;8.10;;;13.90;99.90;;;;;;5056751;28;20523;-70
2021/11/06 09:36:16;;;;;;;9.73;8.00;;;13.90;99.90;;;;;;5061111;28;20461;-70
2021/11/06 09:38:52;;;;;;;9.00;7.40;;;13.80;99.90;;;;;;5087026;28;20436;-69
2021/11/06 09:41:21;;;;;;;9.27;8.10;;;13.90;99.90;;;;;;5075166;28;21047;-67
2021/11/06 09:43:47;;;;;;;8.80;7.50;;;13.90;99.90;;;;;;5080419;28;20417;-67
2021/11/06 09:46:14;;;;;;;10.50;8.07;;;13.90;99.90;;;;;;5072087;28;20441;-70
2021/11/06 09:49:03;;;;;;;9.57;8.10;;;14.00;99.90;;;;;;5074999;28;20428;-68
2021/11/06 09:51:39;;;;;;;8.90;7.47;;;14.00;99.90;;;;;;5061842;28;20454;-69
2021/11/06 09:54:20;;;;;;;9.40;8.43;;;14.10;99.90;;;;;;5082622;28;20520;-69
2021/11/06 09:56:49;;;;;;;9.13;7.50;;;14.10;99.90;;;;;;5071601;28;20460;-70
2021/11/06 09:59:18;;;;;;;8.90;7.83;;;14.10;99.90;;;;;;5072613;28;20847;-69
2021/11/06 10:01:49;;;;;;;12.10;8.63;;;14.20;99.90;;;;;;5070243;28;20452;-68
2021/11/06 10:04:51;;;;;;;11.27;7.83;;;14.20;99.90;;;;;;5072958;28;20203;-68
2021/11/06 10:07:52;;;;;;;9.27;8.23;;;14.30;99.90;;;;;;5070435;28;20449;-67
2021/11/06 10:11:10;;;;;;;9.47;7.90;;;14.20;99.90;;;;;;5071449;28;20434;-68
2021/11/06 10:14:18;;;;;;;8.80;7.80;;;14.20;99.90;;;;;;5078317;28;20548;-69
2021/11/06 10:17:16;;;;;;;9.57;8.37;;;14.20;99.90;;;;;;5076155;28;20469;-70
2021/11/06 10:26:52;;;;;;;9.80;7.97;;;14.10;99.90;;;;;;5260702;22;20490;-69
2021/11/06 10:29:29;;;;;;;9.70;8.67;;;14.00;99.90;;;;;;5077736;28;20442;-71
2021/11/06 10:31:55;;;;;;;9.60;8.60;;;14.10;99.90;;;;;;5087314;28;20496;-70
2021/11/06 10:34:34;;;;;;;10.37;8.13;;;14.10;99.90;;;;;;5057634;28;20516;-69
2021/11/06 10:37:32;;;;;;;9.97;8.40;;;14.20;99.90;;;;;;5065528;28;20426;-70
2021/11/06 10:40:48;;;;;;;9.30;7.93;;;14.20;99.90;;;;;;5067376;28;20457;-66
2021/11/06 10:43:38;;;;;;;12.20;8.27;;;14.20;99.90;;;;;;5069561;28;20816;-71
2021/11/06 10:46:23;;;;;;;9.30;7.97;;;14.20;99.90;;;;;;5058160;28;20489;-72
2021/11/06 10:48:49;;;;;;;10.07;8.10;;;14.30;99.90;;;;;;5066787;28;20414;-69
2021/11/06 10:51:21;;;;;;;9.97;8.83;;;14.30;99.90;;;;;;5055764;28;20446;-69
2021/11/06 10:54:04;;;;;;;10.77;8.63;;;14.30;99.90;;;;;;5054489;28;20462;-71
2021/11/06 10:56:42;;;;;;;10.17;8.27;;;14.30;99.90;;;;;;5081154;28;20452;-71
2021/11/06 10:59:50;;;;;;;9.80;8.30;;;14.30;99.90;;;;;;5074454;28;20432;-72
2021/11/06 11:06:10;;;;;;;10.80;8.10;;;14.40;99.90;;;;;;5777089;22;20491;-94
2021/11/06 11:08:47;;;;;;;10.43;8.20;;;14.40;99.90;;;;;;5093312;28;20445;-89
2021/11/06 11:11:13;;;;;;;10.47;9.37;;;14.40;99.90;;;;;;5092988;28;20406;-89
2021/11/06 11:13:53;;;;;;;14.60;9.43;;;14.40;99.90;;;;;;5094787;28;20468;-94
2021/11/06 11:16:20;;;;;;;10.00;9.00;;;14.40;99.90;;;;;;5097037;28;20801;-89
2021/11/06 11:18:58;;;;;;;9.57;8.20;;;14.40;99.90;;;;;;5100465;28;20431;-95
2021/11/06 11:21:32;;;;;;;12.10;9.20;;;14.40;99.90;;;;;;5095668;28;20424;-89
2021/11/06 11:24:12;;;;;;;10.50;8.30;;;14.40;99.90;;;;;;5094914;28;20432;-88
2021/11/06 11:26:45;;;;;;;9.23;8.23;;;14.50;99.90;;;;;;5095437;28;20947;-88
2021/11/06 11:29:14;;;;;;;13.47;9.30;;;14.50;99.90;;;;;;5100514;28;20440;-94
2021/11/06 11:31:41;;;;;;;8.87;7.87;;;14.50;99.90;;;;;;5103029;28;20428;-93
2021/11/06 11:34:09;;;;;;;11.33;8.67;;;14.50;99.90;;;;;;5095152;28;20454;-94
2021/11/06 11:36:37;;;;;;;9.17;8.23;;;14.50;99.90;;;;;;5115564;28;20442;-89
2021/11/06 11:39:09;;;;;;;10.57;8.73;;;14.50;99.90;;;;;;5097740;28;20424;-89
2021/11/06 11:41:46;;;;;;;10.37;8.50;;;14.50;99.90;;;;;;5097680;28;20864;-94
2021/11/06 11:44:50;;;;;;;11.50;9.43;;;14.50;99.90;;;;;;5097811;28;20432;-94
2021/11/06 11:48:00;;;;;;;10.27;8.80;;;14.50;99.90;;;;;;5097260;28;20450;-94
2021/11/06 11:50:32;;;;;;;11.87;9.10;;;14.50;99.90;;;;;;5117461;28;20400;-89
2021/11/06 11:53:00;;;;;;;12.07;9.20;;;14.50;99.90;;;;;;5116144;28;21040;-88
2021/11/06 11:55:34;;;;;;;12.07;9.77;;;14.50;99.90;;;;;;5096518;28;20784;-88
2021/11/06 11:58:21;;;;;;;12.70;9.33;;;14.50;99.90;;;;;;5096804;28;20413;-93
2021/11/06 12:00:55;;;;;;;13.40;10.70;;;14.50;99.90;;;;;;5103413;28;20436;-95
2021/11/06 12:03:40;;;;;;;10.60;8.83;;;14.50;99.90;;;;;;5099255;28;20467;-94
2021/11/06 12:06:24;;;;;;;10.60;9.33;;;14.50;99.90;;;;;;5101006;28;20471;-94
2021/11/06 12:08:51;;;;;;;12.43;10.17;;;14.50;99.90;;;;;;5095897;28;21031;-89
2021/11/06 12:11:23;;;;;;;11.80;8.70;;;14.50;99.90;;;;;;5095899;28;20427;-94
2021/11/06 12:13:51;;;;;;;14.77;9.50;;;14.40;99.90;;;;;;5095153;28;20468;-94
2021/11/06 12:16:42;;;;;;;9.87;8.87;;;14.40;99.90;;;;;;5106356;28;20534;-94
2021/11/06 12:19:08;;;;;;;10.20;8.60;;;14.40;99.90;;;;;;5078008;28;20432;-94
2021/11/06 12:21:43;;;;;;;10.27;9.17;;;14.40;99.90;;;;;;5097605;28;20420;-88
2021/11/06 12:24:08;;;;;;;10.47;9.37;;;14.40;99.90;;;;;;5115237;28;20404;-94
2021/11/06 12:26:50;;;;;;;13.20;9.50;;;14.30;99.90;;;;;;5114189;28;20432;-89
2021/11/06 12:29:17;;;;;;;11.20;9.20;;;14.30;99.90;;;;;;5097001;28;20200;-94
2021/11/06 12:31:52;;;;;;;11.87;10.07;;;14.30;99.90;;;;;;5096949;28;20576;-95
2021/11/06 12:34:46;;;;;;;11.80;9.47;;;14.30;99.90;;;;;;5096872;28;20472;-94
2021/11/06 12:37:37;;;;;;;12.50;9.33;;;14.30;99.90;;;;;;5096176;28;20465;-94
2021/11/06 12:40:14;;;;;;;13.27;10.20;;;14.30;99.90;;;;;;5079247;28;20413;-88
2021/11/06 12:42:41;;;;;;;13.87;8.90;;;14.20;99.90;;;;;;5095825;28;20424;-93
2021/11/06 12:45:13;;;;;;;10.33;9.07;;;14.20;99.90;;;;;;5107274;28;20448;-89
2021/11/06 12:48:16;;;;;;;10.90;8.20;;;14.20;99.90;;;;;;5103625;28;20390;-95
2021/11/06 12:50:47;;;;;;;12.57;9.70;;;14.20;99.90;;;;;;5099158;28;20431;-88
2021/11/06 12:53:24;;;;;;;12.87;9.63;;;14.10;99.90;;;;;;5097107;28;20490;-94
2021/11/06 12:56:03;;;;;;;12.57;9.40;;;14.10;99.90;;;;;;5096536;28;20427;-89
2021/11/06 12:58:28;;;;;;;12.27;9.70;;;14.10;99.90;;;;;;5096853;28;20448;-94
2021/11/06 13:00:54;;;;;;;9.30;8.40;;;14.10;99.90;;;;;;5096552;28;20420;-90
2021/11/06 13:03:36;;;;;;;9.60;8.10;;;14.00;99.90;;;;;;5114900;28;20275;-94
2021/11/06 13:06:16;;;;;;;12.30;9.20;;;14.00;99.90;;;;;;5093104;28;20445;-89
2021/11/06 13:08:58;;;;;;;12.30;9.80;;;14.00;99.90;;;;;;5095168;28;20432;-94
2021/11/06 13:11:25;;;;;;;12.10;9.30;;;14.00;99.90;;;;;;5094208;28;20779;-89